LSZG 200150Z AUTO 16001KT 9999 NSC 15/14 Q1024 LSZG 200120Z AUTO 22001KT 9999 NSC 16/14 Q1024 LSZG 200050Z AUTO 00000KT 9999 NSC 16/15 Q1024 LSZG 200020Z AUTO 12001KT 9999 NSC 16/14 Q1024 LSZG 192350Z AUTO VRB01KT 9999 NSC 16/14 Q1024 LSZG 192320Z AUTO 10001KT 9999 NSC 17/14 Q1024 LSZG 192250Z AUTO 10002KT 9999 NCD 16/14 Q1024 LSZG 192220Z AUTO 04004KT 9999 NSC 16/14 Q1024 LSZG 192150Z AUTO 21002KT 9999 NCD 17/14 Q1023 LSZG 192120Z AUTO 23002KT 9999 NSC 17/14 Q1023 LSZG 192050Z AUTO 30001KT 9999 NSC 18/14 Q1023 LSZG 192020Z AUTO VRB02KT 9999 NCD 18/13 Q1023 LSZG 191950Z AUTO 22005KT 9999 NCD 22/13 Q1023 LSZG 191920Z AUTO 28003KT 9999 NCD 21/14 Q1023 LSZG 191850Z AUTO 23002KT 9999 NCD 23/14 Q1023 LSZG 191820Z 14003KT CAVOK 24/17 Q1022 NOSIG LSZG 191750Z AUTO 27004KT 9999 NSC 25/15 Q1022 LSZG 191720Z 26004KT CAVOK 25/15 Q1022 NOSIG LSZG 191650Z AUTO 25003KT 9999 //////TCU 25/15 Q1022 LSZG 191620Z 27003KT 9999 //////TCU 24/15 Q1022 NOSIG LSZG 191550Z AUTO 28007KT 9999 -RA BKN///TCU 23/16 Q1022 LSZG 191520Z AUTO 23008KT 9999 VCTS SCT///CB 24/15 Q1022 LSZG 191450Z 25005KT 9999 VCTS FEW055CB 27/16 Q1022 NOSIG LSZG 191420Z 27007KT 9999 FEW060TCU 28/14 Q1022 NOSIG LSZG 191350Z 23011KT 9999 VCTS FEW060CB 29/13 Q1022 NOSIG LSZG 191320Z 24010KT 9999 FEW060 29/15 Q1022 NOSIG LSZG 191250Z 25013KT 9999 VCTS FEW060CB 29/13 Q1022 NOSIG LSZG 191220Z 24013KT 9999 FEW060CB 29/13 Q1022 NOSIG LSZG 191150Z 25013KT 9999 FEW050TCU 28/14 Q1022 NOSIG LSZG 191120Z 25011KT 9999 FEW050 27/13 Q1022 NOSIG LSZG 191050Z 22007KT CAVOK 26/15 Q1023 NOSIG LSZG 191020Z 22005KT CAVOK 25/15 Q1023 NOSIG LSZG 190950Z 22004KT CAVOK 24/14 Q1023 NOSIG LSZG 190920Z 25003KT CAVOK 24/15 Q1023 NOSIG LSZG 190850Z VRB03KT CAVOK 23/14 Q1023 NOSIG LSZG 190820Z VRB02KT CAVOK 22/14 Q1023 NOSIG LSZG 190750Z VRB02KT CAVOK 20/14 Q1023 NOSIG LSZG 190720Z VRB01KT CAVOK 20/13 Q1023 NOSIG LSZG 190650Z 00000KT CAVOK 18/13 Q1023 NOSIG LSZG 190620Z VRB01KT 9999 NSC 17/13 Q1023 NOSIG LSZG 190550Z 19001KT 9999 NSC 16/14 Q1023 NOSIG LSZG 190520Z VRB02KT 9999 NSC 15/13 Q1023 NOSIG LSZG 190450Z AUTO VRB03KT 0200 BR NCD 13/12 Q1022 LSZG 190420Z VRB03KT 9999 NSC 13/12 Q1022 NOSIG LSZG 190350Z AUTO VRB02KT 9999 NCD 13/11 Q1022 LSZG 190320Z AUTO 00000KT 9999 NCD 13/11 Q1022 LSZG 190250Z AUTO 33001KT 9999 NCD 14/12 Q1021 LSZG 190220Z AUTO 10002KT 9999 NCD 12/11 Q1021 LSZG 190150Z AUTO 00000KT 9999 NCD 13/12 Q1021 LSZG 190120Z AUTO 21001KT 9999 NCD 13/11 Q1021 LSZG 190050Z AUTO 21001KT 9999 NCD 13/11 Q1021 LSZG 190020Z AUTO 21001KT 9999 NCD 14/12 Q1021 LSZG 182350Z AUTO 24003KT 9999 NCD 14/12 Q1021 LSZG 182320Z AUTO 00000KT 9999 NCD 15/12 Q1021 LSZG 182250Z AUTO 00000KT 9999 NCD 15/12 Q1021 LSZG 182220Z AUTO 00000KT 9999 NCD 16/13 Q1021 LSZG 182150Z AUTO 13001KT 9999 NCD 16/12 Q1021 LSZG 182120Z AUTO 00000KT 9999 NCD 16/12 Q1020 LSZG 182050Z AUTO VRB02KT 9999 NCD 17/13 Q1020 LSZG 182020Z AUTO 08003KT 9999 NCD 16/13 Q1020 RERA LSZG 181950Z AUTO 07003KT 9999 NCD 17/13 Q1020 LSZG 181920Z AUTO 09004KT 9999 NCD 19/13 Q1020 LSZG 181850Z 08004KT 9999 FEW050 23/11 Q1019 NOSIG LSZG 181820Z 04005KT 9999 FEW050 22/12 Q1019 NOSIG LSZG 181750Z 05005KT 9999 FEW050 23/14 Q1019 NOSIG LSZG 181720Z 06006KT 9999 FEW050 25/14 Q1019 NOSIG LSZG 181650Z 08005KT 9999 FEW050 26/14 Q1019 NOSIG LSZG 181620Z 08006KT 9999 FEW050 27/13 Q1019 NOSIG LSZG 181550Z 07006KT 9999 FEW050 27/13 Q1019 NOSIG LSZG 181520Z 08005KT 9999 FEW050 28/10 Q1020 NOSIG LSZG 181450Z 07007KT 9999 FEW050 28/13 Q1020 NOSIG LSZG 181420Z 07007KT 9999 FEW050 28/11 Q1020 NOSIG

METAR Messwerte "GRENCHEN" LSZG

Zurück zur Übersicht

Ortsname
Ländercode / m ü. NN
Zeit Temperatur Taupunkt Rel.
Luftfeuchte
Luftdruck:
Altimeter
NN
Station
Wind in Beaufort
(Knoten)
Sichtweite
(Meter)
Wolken
(Meter über Grund)
Wettererscheinung
GRENCHEN
CH 428
Fr 20.05. 03:50151494 %1024
1024
973
SSO 1 (1)>= 10000Nicht signifikant 
GRENCHEN
CH 428
Fr 20.05. 03:20161488 %1024
1024
973
SW 1 (1)>= 10000Nicht signifikant 
GRENCHEN
CH 428
Fr 20.05. 02:50161594 %1024
1024
973
Windstill>= 10000Nicht signifikant 
GRENCHEN
CH 428
Fr 20.05. 02:20161488 %1024
1024
973
OSO 1 (1)>= 10000Nicht signifikant 
GRENCHEN
CH 428
Fr 20.05. 01:50161488 %1024
1024
973
Uml 1 (1)>= 10000Nicht signifikant 
GRENCHEN
CH 428
Fr 20.05. 01:20171482 %1024
1024
973
O 1 (1)>= 10000Nicht signifikant 
GRENCHEN
CH 428
Fr 20.05. 00:50161488 %1024
1024
973
O 1 (2)>= 10000  
GRENCHEN
CH 428
Fr 20.05. 00:20161488 %1024
1024
973
NO 2 (4)>= 10000Nicht signifikant 
GRENCHEN
CH 428
Do 19.05. 23:50171482 %1023
1023
972
SSW 1 (2)>= 10000  
GRENCHEN
CH 428
Do 19.05. 23:20171482 %1023
1023
972
SW 1 (2)>= 10000Nicht signifikant 
GRENCHEN
CH 428
Do 19.05. 22:50181477 %1023
1023
972
WNW 1 (1)>= 10000Nicht signifikant 
GRENCHEN
CH 428
Do 19.05. 22:20181373 %1023
1023
972
Uml 1 (2)>= 10000  
GRENCHEN
CH 428
Do 19.05. 21:50221357 %1023
1022
972
SW 2 (5)>= 10000  
GRENCHEN
CH 428
Do 19.05. 21:20211464 %1023
1022
972
W 2 (3)>= 10000  
GRENCHEN
CH 428
Do 19.05. 20:50231457 %1023
1022
972
SW 1 (2)>= 10000  
GRENCHEN
CH 428
Do 19.05. 20:20241765 %1022
1021
971
SO 2 (3)>= 10000Nicht signifikant 
GRENCHEN
CH 428
Do 19.05. 19:50251554 %1022
1020
971
W 2 (4)>= 10000Nicht signifikant 
GRENCHEN
CH 428
Do 19.05. 19:20251554 %1022
1020
971
W 2 (4)>= 10000Nicht signifikant 
GRENCHEN
CH 428
Do 19.05. 18:50251554 %1022
1020
971
WSW 2 (3)>= 10000  
GRENCHEN
CH 428
Do 19.05. 18:20241557 %1022
1021
971
W 2 (3)>= 10000  
GRENCHEN
CH 428
Do 19.05. 17:50231665 %1022
1021
971
W 3 (7)>= 10000 Regen (schwach)
GRENCHEN
CH 428
Do 19.05. 17:20241557 %1022
1021
971
SW 3 (8)>= 10000  
GRENCHEN
CH 428
Do 19.05. 16:50271651 %1022
1020
971
WSW 2 (5)>= 10000Leicht bewölkt Cb (1700) 
GRENCHEN
CH 428
Do 19.05. 16:20281442 %1022
1020
971
W 3 (7)>= 10000Leicht bewölkt (1800) 
GRENCHEN
CH 428
Do 19.05. 15:50291337 %1022
1020
971
SW 4 (11)>= 10000Leicht bewölkt Cb (1800) 
GRENCHEN
CH 428
Do 19.05. 15:20291543 %1022
1020
971
WSW 3 (10)>= 10000Leicht bewölkt (1800) 
GRENCHEN
CH 428
Do 19.05. 14:50291337 %1022
1020
971
WSW 4 (13)>= 10000Leicht bewölkt Cb (1800) 
GRENCHEN
CH 428
Do 19.05. 14:20291337 %1022
1020
971
WSW 4 (13)>= 10000Leicht bewölkt Cb (1800) 
GRENCHEN
CH 428
Do 19.05. 13:50281442 %1022
1020
971
WSW 4 (13)>= 10000Leicht bewölkt (1500) 
GRENCHEN
CH 428
Do 19.05. 13:20271342 %1022
1020
971
WSW 4 (11)>= 10000Leicht bewölkt (1500) 
GRENCHEN
CH 428
Do 19.05. 12:50261551 %1023
1021
972
SW 3 (7)>= 10000Nicht signifikant 
GRENCHEN
CH 428
Do 19.05. 12:20251554 %1023
1021
972
SW 2 (5)>= 10000Nicht signifikant 
GRENCHEN
CH 428
Do 19.05. 11:50241454 %1023
1022
972
SW 2 (4)>= 10000Nicht signifikant 
GRENCHEN
CH 428
Do 19.05. 11:20241557 %1023
1022
972
WSW 2 (3)>= 10000Nicht signifikant 
GRENCHEN
CH 428
Do 19.05. 10:50231457 %1023
1022
972
Uml 2 (3)>= 10000Nicht signifikant 
GRENCHEN
CH 428
Do 19.05. 10:20221460 %1023
1022
972
Uml 1 (2)>= 10000Nicht signifikant 
GRENCHEN
CH 428
Do 19.05. 09:50201468 %1023
1022
972
Uml 1 (2)>= 10000Nicht signifikant 
GRENCHEN
CH 428
Do 19.05. 09:20201364 %1023
1022
972
Uml 1 (1)>= 10000Nicht signifikant 
GRENCHEN
CH 428
Do 19.05. 08:50181373 %1023
1023
972
Windstill>= 10000Nicht signifikant 
GRENCHEN
CH 428
Do 19.05. 08:20171377 %1023
1023
972
Uml 1 (1)>= 10000Nicht signifikant 
GRENCHEN
CH 428
Do 19.05. 07:50161488 %1023
1023
972
S 1 (1)>= 10000Nicht signifikant 
GRENCHEN
CH 428
Do 19.05. 07:20151388 %1023
1023
972
Uml 1 (2)>= 10000Nicht signifikant 
GRENCHEN
CH 428
Do 19.05. 06:50131294 %1022
1022
971
Uml 2 (3)200 Nebeldunst
GRENCHEN
CH 428
Do 19.05. 06:20131294 %1022
1022
971
Uml 2 (3)>= 10000Nicht signifikant 
GRENCHEN
CH 428
Do 19.05. 05:50131188 %1022
1022
971
Uml 1 (2)>= 10000  
GRENCHEN
CH 428
Do 19.05. 05:20131188 %1022
1022
971
Windstill>= 10000  
GRENCHEN
CH 428
Do 19.05. 04:50141288 %1021
1021
970
NNW 1 (1)>= 10000  
GRENCHEN
CH 428
Do 19.05. 04:20121194 %1021
1022
970
O 1 (2)>= 10000  
GRENCHEN
CH 428
Do 19.05. 03:50131294 %1021
1021
970
Windstill>= 10000  
GRENCHEN
CH 428
Do 19.05. 03:20131188 %1021
1021
970
SSW 1 (1)>= 10000  
GRENCHEN
CH 428
Do 19.05. 02:50131188 %1021
1021
970
SSW 1 (1)>= 10000  
GRENCHEN
CH 428
Do 19.05. 02:20141288 %1021
1021
970
SSW 1 (1)>= 10000  
GRENCHEN
CH 428
Do 19.05. 01:50141288 %1021
1021
970
WSW 2 (3)>= 10000  
GRENCHEN
CH 428
Do 19.05. 01:20151282 %1021
1021
970
Windstill>= 10000  
GRENCHEN
CH 428
Do 19.05. 00:50151282 %1021
1021
970
Windstill>= 10000  
GRENCHEN
CH 428
Do 19.05. 00:20161382 %1021
1021
970
Windstill>= 10000  
GRENCHEN
CH 428
Mi 18.05. 23:50161277 %1021
1021
970
SO 1 (1)>= 10000  
GRENCHEN
CH 428
Mi 18.05. 23:20161277 %1020
1020
969
Windstill>= 10000  
GRENCHEN
CH 428
Mi 18.05. 22:50171377 %1020
1020
969
Uml 1 (2)>= 10000  
GRENCHEN
CH 428
Mi 18.05. 22:20161382 %1020
1020
969
O 2 (3)>= 10000  
GRENCHEN
CH 428
Mi 18.05. 21:50171377 %1020
1020
969
ONO 2 (3)>= 10000  
GRENCHEN
CH 428
Mi 18.05. 21:20191368 %1020
1019
969
O 2 (4)>= 10000  
GRENCHEN
CH 428
Mi 18.05. 20:50231147 %1019
1018
968
O 2 (4)>= 10000Leicht bewölkt (1500) 
GRENCHEN
CH 428
Mi 18.05. 20:20221253 %1019
1018
968
NO 2 (5)>= 10000Leicht bewölkt (1500) 
GRENCHEN
CH 428
Mi 18.05. 19:50231457 %1019
1018
968
NO 2 (5)>= 10000Leicht bewölkt (1500) 
GRENCHEN
CH 428
Mi 18.05. 19:20251450 %1019
1017
968
ONO 2 (6)>= 10000Leicht bewölkt (1500) 
GRENCHEN
CH 428
Mi 18.05. 18:50261448 %1019
1017
968
O 2 (5)>= 10000Leicht bewölkt (1500) 
GRENCHEN
CH 428
Mi 18.05. 18:20271342 %1019
1017
968
O 2 (6)>= 10000Leicht bewölkt (1500) 
GRENCHEN
CH 428
Mi 18.05. 17:50271342 %1019
1017
968
ONO 2 (6)>= 10000Leicht bewölkt (1500) 
GRENCHEN
CH 428
Mi 18.05. 17:20281032 %1020
1018
969
O 2 (5)>= 10000Leicht bewölkt (1500) 
GRENCHEN
CH 428
Mi 18.05. 16:50281340 %1020
1018
969
ONO 3 (7)>= 10000Leicht bewölkt (1500) 
GRENCHEN
CH 428
Mi 18.05. 16:20281135 %1020
1018
969
ONO 3 (7)>= 10000Leicht bewölkt (1500) 

Altimeter: Einstellung am Altimeter (Höhenmesser), die Höhe 0 muss auf diesen Luftdruckwert zeigen, damit das Gerät die Stationshöhe richtig anzeigt.

NN: Luftdruck reduziert auf "Normal Null", auf Meereshöhe, dieser von der Temperatur abhängige Wert wird bisweilen unkorrekt einfach als "Luftdruck" bezeichnet. Eigentlich nur eine fiktive Größe, die es erlaubt, Stationen auf unterschiedlichen Höhen miteinander zu vergleichen.

Station: Realer Luftdruck an der Station.